sensor_id;sensor_type;location;lat;lon;timestamp;temperature;humidity
22319;DHT22;11327;52.334;9.506;2022-08-19T00:03:18;20.40;99.90
22319;DHT22;11327;52.334;9.506;2022-08-19T00:06:41;20.30;99.90
22319;DHT22;11327;52.334;9.506;2022-08-19T00:10:07;20.30;99.90
22319;DHT22;11327;52.334;9.506;2022-08-19T00:13:28;20.30;99.90
22319;DHT22;11327;52.334;9.506;2022-08-19T00:16:50;20.20;99.90
22319;DHT22;11327;52.334;9.506;2022-08-19T00:20:16;20.20;99.90
22319;DHT22;11327;52.334;9.506;2022-08-19T00:23:38;20.20;99.90
22319;DHT22;11327;52.334;9.506;2022-08-19T00:26:59;20.20;99.90
22319;DHT22;11327;52.334;9.506;2022-08-19T00:30:22;20.20;99.90
22319;DHT22;11327;52.334;9.506;2022-08-19T00:33:43;20.20;99.90
22319;DHT22;11327;52.334;9.506;2022-08-19T00:37:04;20.20;99.90
22319;DHT22;11327;52.334;9.506;2022-08-19T00:40:25;20.20;99.90
22319;DHT22;11327;52.334;9.506;2022-08-19T00:44:11;20.10;99.90
22319;DHT22;11327;52.334;9.506;2022-08-19T00:47:33;20.10;99.90
22319;DHT22;11327;52.334;9.506;2022-08-19T00:50:54;20.00;99.90
22319;DHT22;11327;52.334;9.506;2022-08-19T00:54:16;19.90;99.90
22319;DHT22;11327;52.334;9.506;2022-08-19T00:57:40;19.80;99.90
22319;DHT22;11327;52.334;9.506;2022-08-19T01:01:03;19.70;99.90
22319;DHT22;11327;52.334;9.506;2022-08-19T01:04:24;19.70;99.90
22319;DHT22;11327;52.334;9.506;2022-08-19T01:07:46;19.60;99.90
22319;DHT22;11327;52.334;9.506;2022-08-19T01:11:08;19.60;99.90
22319;DHT22;11327;52.334;9.506;2022-08-19T01:14:30;19.60;99.90
22319;DHT22;11327;52.334;9.506;2022-08-19T01:17:52;19.50;99.90
22319;DHT22;11327;52.334;9.506;2022-08-19T01:21:22;19.60;99.90
22319;DHT22;11327;52.334;9.506;2022-08-19T01:24:41;19.50;99.90
22319;DHT22;11327;52.334;9.506;2022-08-19T01:28:02;19.50;99.90
22319;DHT22;11327;52.334;9.506;2022-08-19T01:31:26;19.50;99.90
22319;DHT22;11327;52.334;9.506;2022-08-19T01:34:47;19.50;99.90
22319;DHT22;11327;52.334;9.506;2022-08-19T01:38:18;19.50;99.90
22319;DHT22;11327;52.334;9.506;2022-08-19T01:41:33;19.50;99.90
22319;DHT22;11327;52.334;9.506;2022-08-19T01:44:54;19.50;99.90
22319;DHT22;11327;52.334;9.506;2022-08-19T01:48:15;19.40;99.90
22319;DHT22;11327;52.334;9.506;2022-08-19T01:51:37;19.40;99.90
22319;DHT22;11327;52.334;9.506;2022-08-19T01:54:58;19.40;99.90
22319;DHT22;11327;52.334;9.506;2022-08-19T01:58:23;19.40;99.90
22319;DHT22;11327;52.334;9.506;2022-08-19T02:01:43;19.40;99.90
22319;DHT22;11327;52.334;9.506;2022-08-19T02:05:05;19.40;99.90
22319;DHT22;11327;52.334;9.506;2022-08-19T02:08:29;19.40;99.90
22319;DHT22;11327;52.334;9.506;2022-08-19T02:11:50;19.40;99.90
22319;DHT22;11327;52.334;9.506;2022-08-19T02:15:12;19.20;99.90
22319;DHT22;11327;52.334;9.506;2022-08-19T02:18:33;19.20;99.90
22319;DHT22;11327;52.334;9.506;2022-08-19T02:21:54;19.20;99.90
22319;DHT22;11327;52.334;9.506;2022-08-19T02:25:15;19.10;99.90
22319;DHT22;11327;52.334;9.506;2022-08-19T02:28:36;19.20;99.90
22319;DHT22;11327;52.334;9.506;2022-08-19T02:31:57;19.20;99.90
22319;DHT22;11327;52.334;9.506;2022-08-19T02:35:19;19.20;99.90
22319;DHT22;11327;52.334;9.506;2022-08-19T02:38:40;19.20;99.90
22319;DHT22;11327;52.334;9.506;2022-08-19T02:42:02;19.30;99.90
22319;DHT22;11327;52.334;9.506;2022-08-19T02:45:23;19.30;99.90
22319;DHT22;11327;52.334;9.506;2022-08-19T02:48:44;19.30;99.90
22319;DHT22;11327;52.334;9.506;2022-08-19T02:52:05;19.20;99.90
22319;DHT22;11327;52.334;9.506;2022-08-19T02:55:26;19.20;99.90
22319;DHT22;11327;52.334;9.506;2022-08-19T02:58:47;19.20;99.90
22319;DHT22;11327;52.334;9.506;2022-08-19T03:02:09;19.20;99.90
22319;DHT22;11327;52.334;9.506;2022-08-19T03:05:30;19.30;99.90
22319;DHT22;11327;52.334;9.506;2022-08-19T03:08:52;19.20;99.90
22319;DHT22;11327;52.334;9.506;2022-08-19T03:12:13;19.20;99.90
22319;DHT22;11327;52.334;9.506;2022-08-19T03:15:34;19.20;99.90
22319;DHT22;11327;52.334;9.506;2022-08-19T03:18:58;19.10;99.90
22319;DHT22;11327;52.334;9.506;2022-08-19T03:22:20;19.10;99.90
22319;DHT22;11327;52.334;9.506;2022-08-19T03:25:45;19.10;99.90
22319;DHT22;11327;52.334;9.506;2022-08-19T03:29:06;19.10;99.90
22319;DHT22;11327;52.334;9.506;2022-08-19T03:32:27;19.00;99.90
22319;DHT22;11327;52.334;9.506;2022-08-19T03:36:32;19.00;99.90
22319;DHT22;11327;52.334;9.506;2022-08-19T03:39:16;19.00;99.90
22319;DHT22;11327;52.334;9.506;2022-08-19T03:42:37;19.00;99.90
22319;DHT22;11327;52.334;9.506;2022-08-19T03:46:05;19.00;99.90
22319;DHT22;11327;52.334;9.506;2022-08-19T03:49:28;18.90;99.90
22319;DHT22;11327;52.334;9.506;2022-08-19T03:52:50;18.90;99.90
22319;DHT22;11327;52.334;9.506;2022-08-19T03:56:11;18.90;99.90
22319;DHT22;11327;52.334;9.506;2022-08-19T03:59:35;18.80;99.90
22319;DHT22;11327;52.334;9.506;2022-08-19T04:02:56;18.70;99.90
22319;DHT22;11327;52.334;9.506;2022-08-19T04:06:23;18.70;99.90
22319;DHT22;11327;52.334;9.506;2022-08-19T04:09:44;18.70;99.90
22319;DHT22;11327;52.334;9.506;2022-08-19T04:13:05;18.70;99.90
22319;DHT22;11327;52.334;9.506;2022-08-19T04:16:28;18.70;99.90
22319;DHT22;11327;52.334;9.506;2022-08-19T04:19:49;18.60;99.90
22319;DHT22;11327;52.334;9.506;2022-08-19T04:23:11;18.60;99.90
22319;DHT22;11327;52.334;9.506;2022-08-19T04:26:34;18.60;99.90
22319;DHT22;11327;52.334;9.506;2022-08-19T04:29:57;18.60;99.90
22319;DHT22;11327;52.334;9.506;2022-08-19T04:33:20;18.60;99.90
22319;DHT22;11327;52.334;9.506;2022-08-19T04:36:44;18.50;99.90
22319;DHT22;11327;52.334;9.506;2022-08-19T04:40:06;18.50;99.90
22319;DHT22;11327;52.334;9.506;2022-08-19T04:43:46;18.50;99.90
22319;DHT22;11327;52.334;9.506;2022-08-19T04:47:09;18.40;99.90
22319;DHT22;11327;52.334;9.506;2022-08-19T04:50:30;18.40;99.90
22319;DHT22;11327;52.334;9.506;2022-08-19T04:53:51;18.40;99.90
22319;DHT22;11327;52.334;9.506;2022-08-19T04:57:13;18.40;99.90
22319;DHT22;11327;52.334;9.506;2022-08-19T05:00:34;18.40;99.90
22319;DHT22;11327;52.334;9.506;2022-08-19T05:03:55;18.40;99.90
22319;DHT22;11327;52.334;9.506;2022-08-19T05:07:16;18.40;99.90
22319;DHT22;11327;52.334;9.506;2022-08-19T05:10:39;18.30;99.90
22319;DHT22;11327;52.334;9.506;2022-08-19T05:14:01;18.20;99.90
22319;DHT22;11327;52.334;9.506;2022-08-19T05:17:22;18.30;99.90
22319;DHT22;11327;52.334;9.506;2022-08-19T05:20:43;18.40;99.90
22319;DHT22;11327;52.334;9.506;2022-08-19T05:24:23;18.40;99.90
22319;DHT22;11327;52.334;9.506;2022-08-19T05:27:44;18.40;99.90
22319;DHT22;11327;52.334;9.506;2022-08-19T05:31:05;18.40;99.90
22319;DHT22;11327;52.334;9.506;2022-08-19T05:34:26;18.40;99.90
22319;DHT22;11327;52.334;9.506;2022-08-19T05:37:47;18.40;99.90
22319;DHT22;11327;52.334;9.506;2022-08-19T05:41:09;18.40;99.90
22319;DHT22;11327;52.334;9.506;2022-08-19T05:44:32;18.40;99.90
22319;DHT22;11327;52.334;9.506;2022-08-19T05:47:54;18.40;99.90
22319;DHT22;11327;52.334;9.506;2022-08-19T05:51:15;18.40;99.90
22319;DHT22;11327;52.334;9.506;2022-08-19T05:54:38;18.40;99.90
22319;DHT22;11327;52.334;9.506;2022-08-19T05:58:00;18.40;99.90
22319;DHT22;11327;52.334;9.506;2022-08-19T06:01:22;18.40;99.90
22319;DHT22;11327;52.334;9.506;2022-08-19T06:04:43;18.40;99.90
22319;DHT22;11327;52.334;9.506;2022-08-19T06:08:04;18.40;99.90
22319;DHT22;11327;52.334;9.506;2022-08-19T06:11:46;18.40;99.90
22319;DHT22;11327;52.334;9.506;2022-08-19T06:15:09;18.40;99.90
22319;DHT22;11327;52.334;9.506;2022-08-19T06:18:30;18.30;99.90
22319;DHT22;11327;52.334;9.506;2022-08-19T06:21:53;18.30;99.90
22319;DHT22;11327;52.334;9.506;2022-08-19T06:25:14;18.30;99.90
22319;DHT22;11327;52.334;9.506;2022-08-19T06:28:35;18.30;99.90
22319;DHT22;11327;52.334;9.506;2022-08-19T06:31:58;18.40;99.90
22319;DHT22;11327;52.334;9.506;2022-08-19T06:35:19;18.40;99.90
22319;DHT22;11327;52.334;9.506;2022-08-19T06:38:40;18.40;99.90
22319;DHT22;11327;52.334;9.506;2022-08-19T06:42:02;18.50;99.90
22319;DHT22;11327;52.334;9.506;2022-08-19T06:45:26;18.60;99.90
22319;DHT22;11327;52.334;9.506;2022-08-19T06:48:47;18.70;99.90
22319;DHT22;11327;52.334;9.506;2022-08-19T06:52:10;18.80;99.90
22319;DHT22;11327;52.334;9.506;2022-08-19T06:55:34;18.90;99.90
22319;DHT22;11327;52.334;9.506;2022-08-19T06:58:56;19.10;99.90
22319;DHT22;11327;52.334;9.506;2022-08-19T07:02:17;19.10;99.90
22319;DHT22;11327;52.334;9.506;2022-08-19T07:05:42;19.30;99.90
22319;DHT22;11327;52.334;9.506;2022-08-19T07:09:05;19.40;99.90
22319;DHT22;11327;52.334;9.506;2022-08-19T07:12:28;19.50;99.90
22319;DHT22;11327;52.334;9.506;2022-08-19T07:15:51;19.60;99.90
22319;DHT22;11327;52.334;9.506;2022-08-19T07:19:13;19.60;99.90
22319;DHT22;11327;52.334;9.506;2022-08-19T07:22:38;19.70;99.90
22319;DHT22;11327;52.334;9.506;2022-08-19T07:26:08;19.70;99.90
22319;DHT22;11327;52.334;9.506;2022-08-19T07:29:31;19.80;99.90
22319;DHT22;11327;52.334;9.506;2022-08-19T07:32:53;19.90;99.90
22319;DHT22;11327;52.334;9.506;2022-08-19T07:36:17;19.90;99.90
22319;DHT22;11327;52.334;9.506;2022-08-19T07:39:38;20.00;99.90
22319;DHT22;11327;52.334;9.506;2022-08-19T07:42:59;20.00;99.90
22319;DHT22;11327;52.334;9.506;2022-08-19T07:46:20;20.10;99.90
22319;DHT22;11327;52.334;9.506;2022-08-19T07:49:41;20.10;99.90
22319;DHT22;11327;52.334;9.506;2022-08-19T07:53:03;20.10;99.90
22319;DHT22;11327;52.334;9.506;2022-08-19T07:56:24;20.20;99.90
22319;DHT22;11327;52.334;9.506;2022-08-19T07:59:45;20.20;99.90
22319;DHT22;11327;52.334;9.506;2022-08-19T08:03:06;20.20;99.90
22319;DHT22;11327;52.334;9.506;2022-08-19T08:06:29;20.30;99.90
22319;DHT22;11327;52.334;9.506;2022-08-19T08:10:08;20.40;99.90
22319;DHT22;11327;52.334;9.506;2022-08-19T08:13:30;20.40;99.90
22319;DHT22;11327;52.334;9.506;2022-08-19T08:16:51;20.40;99.90
22319;DHT22;11327;52.334;9.506;2022-08-19T08:20:13;20.50;99.90
22319;DHT22;11327;52.334;9.506;2022-08-19T08:23:35;20.50;99.90
22319;DHT22;11327;52.334;9.506;2022-08-19T08:26:58;20.60;99.90
22319;DHT22;11327;52.334;9.506;2022-08-19T08:30:22;20.60;99.90
22319;DHT22;11327;52.334;9.506;2022-08-19T08:33:43;20.80;99.90
22319;DHT22;11327;52.334;9.506;2022-08-19T08:37:04;20.80;99.90
22319;DHT22;11327;52.334;9.506;2022-08-19T08:40:42;20.90;99.90
22319;DHT22;11327;52.334;9.506;2022-08-19T08:44:03;21.00;99.90
22319;DHT22;11327;52.334;9.506;2022-08-19T08:47:39;21.00;99.90
22319;DHT22;11327;52.334;9.506;2022-08-19T08:51:03;21.00;99.90
22319;DHT22;11327;52.334;9.506;2022-08-19T08:54:30;21.10;99.90
22319;DHT22;11327;52.334;9.506;2022-08-19T08:57:53;21.20;99.90
22319;DHT22;11327;52.334;9.506;2022-08-19T09:01:15;21.40;99.90
22319;DHT22;11327;52.334;9.506;2022-08-19T09:04:36;21.50;99.90
22319;DHT22;11327;52.334;9.506;2022-08-19T09:08:01;21.80;99.90
22319;DHT22;11327;52.334;9.506;2022-08-19T09:11:35;22.00;99.90
22319;DHT22;11327;52.334;9.506;2022-08-19T09:14:59;22.20;99.90
22319;DHT22;11327;52.334;9.506;2022-08-19T09:18:21;22.40;99.90
22319;DHT22;11327;52.334;9.506;2022-08-19T09:21:43;22.60;99.90
22319;DHT22;11327;52.334;9.506;2022-08-19T09:25:06;22.70;99.90
22319;DHT22;11327;52.334;9.506;2022-08-19T09:28:27;22.80;99.90
22319;DHT22;11327;52.334;9.506;2022-08-19T09:31:49;22.90;99.90
22319;DHT22;11327;52.334;9.506;2022-08-19T09:35:12;22.90;99.90
22319;DHT22;11327;52.334;9.506;2022-08-19T09:38:34;22.90;99.90
22319;DHT22;11327;52.334;9.506;2022-08-19T09:41:55;23.00;99.90
22319;DHT22;11327;52.334;9.506;2022-08-19T09:45:18;23.10;99.90
22319;DHT22;11327;52.334;9.506;2022-08-19T09:48:41;23.30;99.90
22319;DHT22;11327;52.334;9.506;2022-08-19T09:52:03;23.50;99.90
22319;DHT22;11327;52.334;9.506;2022-08-19T09:55:25;23.70;99.90
22319;DHT22;11327;52.334;9.506;2022-08-19T09:58:46;23.70;99.90
22319;DHT22;11327;52.334;9.506;2022-08-19T10:02:07;23.60;99.90
22319;DHT22;11327;52.334;9.506;2022-08-19T10:05:30;23.70;99.90
22319;DHT22;11327;52.334;9.506;2022-08-19T10:09:10;23.80;99.90
22319;DHT22;11327;52.334;9.506;2022-08-19T10:12:31;23.90;99.90
22319;DHT22;11327;52.334;9.506;2022-08-19T10:15:55;24.20;99.90
22319;DHT22;11327;52.334;9.506;2022-08-19T10:19:17;24.50;99.90
22319;DHT22;11327;52.334;9.506;2022-08-19T10:22:38;24.60;99.90
22319;DHT22;11327;52.334;9.506;2022-08-19T10:26:00;24.60;99.90
22319;DHT22;11327;52.334;9.506;2022-08-19T10:29:21;24.80;99.90
22319;DHT22;11327;52.334;9.506;2022-08-19T10:32:42;24.90;99.90
22319;DHT22;11327;52.334;9.506;2022-08-19T10:36:09;25.20;99.90
22319;DHT22;11327;52.334;9.506;2022-08-19T10:39:29;25.10;99.90
22319;DHT22;11327;52.334;9.506;2022-08-19T10:42:51;25.10;99.90
22319;DHT22;11327;52.334;9.506;2022-08-19T10:46:13;25.00;99.90
22319;DHT22;11327;52.334;9.506;2022-08-19T10:49:35;25.20;99.90
22319;DHT22;11327;52.334;9.506;2022-08-19T10:53:02;25.30;99.90
22319;DHT22;11327;52.334;9.506;2022-08-19T10:56:22;25.40;99.90
22319;DHT22;11327;52.334;9.506;2022-08-19T11:00:03;25.50;99.90
22319;DHT22;11327;52.334;9.506;2022-08-19T11:03:25;25.90;99.90
22319;DHT22;11327;52.334;9.506;2022-08-19T11:06:48;26.10;99.90
22319;DHT22;11327;52.334;9.506;2022-08-19T11:10:11;26.20;99.90
22319;DHT22;11327;52.334;9.506;2022-08-19T11:13:35;26.30;99.90
22319;DHT22;11327;52.334;9.506;2022-08-19T11:16:57;26.30;99.90
22319;DHT22;11327;52.334;9.506;2022-08-19T11:20:18;26.40;99.90
22319;DHT22;11327;52.334;9.506;2022-08-19T11:23:40;26.50;99.90
22319;DHT22;11327;52.334;9.506;2022-08-19T11:27:04;26.60;99.90
22319;DHT22;11327;52.334;9.506;2022-08-19T11:30:26;26.70;99.90
22319;DHT22;11327;52.334;9.506;2022-08-19T11:33:48;26.80;99.90
22319;DHT22;11327;52.334;9.506;2022-08-19T11:37:12;27.00;99.90
22319;DHT22;11327;52.334;9.506;2022-08-19T11:40:34;27.00;99.90
22319;DHT22;11327;52.334;9.506;2022-08-19T11:43:55;27.10;99.90
22319;DHT22;11327;52.334;9.506;2022-08-19T11:47:16;27.20;99.90
22319;DHT22;11327;52.334;9.506;2022-08-19T11:50:37;27.30;99.90
22319;DHT22;11327;52.334;9.506;2022-08-19T11:54:00;27.30;99.90
22319;DHT22;11327;52.334;9.506;2022-08-19T11:57:21;27.40;99.90
22319;DHT22;11327;52.334;9.506;2022-08-19T12:00:43;27.50;99.90
22319;DHT22;11327;52.334;9.506;2022-08-19T12:04:05;27.60;99.90
22319;DHT22;11327;52.334;9.506;2022-08-19T12:07:26;27.60;99.90
22319;DHT22;11327;52.334;9.506;2022-08-19T12:10:47;27.70;99.90
22319;DHT22;11327;52.334;9.506;2022-08-19T12:14:10;27.90;99.90
22319;DHT22;11327;52.334;9.506;2022-08-19T12:17:32;28.10;99.90
22319;DHT22;11327;52.334;9.506;2022-08-19T12:20:53;28.20;99.90
22319;DHT22;11327;52.334;9.506;2022-08-19T12:24:17;28.40;99.90
22319;DHT22;11327;52.334;9.506;2022-08-19T12:27:43;28.50;99.90
22319;DHT22;11327;52.334;9.506;2022-08-19T12:31:04;28.80;99.90
22319;DHT22;11327;52.334;9.506;2022-08-19T12:34:25;28.90;99.80
22319;DHT22;11327;52.334;9.506;2022-08-19T12:37:47;28.80;99.70
22319;DHT22;11327;52.334;9.506;2022-08-19T12:41:11;28.90;99.20
22319;DHT22;11327;52.334;9.506;2022-08-19T12:44:32;28.80;98.40
22319;DHT22;11327;52.334;9.506;2022-08-19T12:47:53;28.90;97.10
22319;DHT22;11327;52.334;9.506;2022-08-19T12:51:17;28.90;96.80
22319;DHT22;11327;52.334;9.506;2022-08-19T12:54:40;29.00;96.90
22319;DHT22;11327;52.334;9.506;2022-08-19T12:58:01;28.80;96.30
22319;DHT22;11327;52.334;9.506;2022-08-19T13:01:22;28.90;95.80
22319;DHT22;11327;52.334;9.506;2022-08-19T13:04:43;29.00;96.70
22319;DHT22;11327;52.334;9.506;2022-08-19T13:08:04;29.00;95.90
22319;DHT22;11327;52.334;9.506;2022-08-19T13:11:25;29.10;95.50
22319;DHT22;11327;52.334;9.506;2022-08-19T13:14:46;29.00;92.80
22319;DHT22;11327;52.334;9.506;2022-08-19T13:18:09;28.90;93.50
22319;DHT22;11327;52.334;9.506;2022-08-19T13:21:31;28.90;94.50
22319;DHT22;11327;52.334;9.506;2022-08-19T13:24:52;28.90;92.90
22319;DHT22;11327;52.334;9.506;2022-08-19T13:28:13;29.00;93.40
22319;DHT22;11327;52.334;9.506;2022-08-19T13:31:35;29.10;92.90
22319;DHT22;11327;52.334;9.506;2022-08-19T13:35:16;29.20;92.30
22319;DHT22;11327;52.334;9.506;2022-08-19T13:38:37;29.20;93.70
22319;DHT22;11327;52.334;9.506;2022-08-19T13:41:59;29.10;93.00
22319;DHT22;11327;52.334;9.506;2022-08-19T13:45:24;29.10;94.00
22319;DHT22;11327;52.334;9.506;2022-08-19T13:48:46;29.00;92.50
22319;DHT22;11327;52.334;9.506;2022-08-19T13:52:07;29.10;92.90
22319;DHT22;11327;52.334;9.506;2022-08-19T13:55:29;29.20;93.20
22319;DHT22;11327;52.334;9.506;2022-08-19T13:58:50;29.20;92.40
22319;DHT22;11327;52.334;9.506;2022-08-19T14:02:11;29.10;91.00
22319;DHT22;11327;52.334;9.506;2022-08-19T14:05:34;29.00;91.30
22319;DHT22;11327;52.334;9.506;2022-08-19T14:08:55;29.00;93.40
22319;DHT22;11327;52.334;9.506;2022-08-19T14:12:20;29.20;93.50
22319;DHT22;11327;52.334;9.506;2022-08-19T14:15:41;29.20;92.60
22319;DHT22;11327;52.334;9.506;2022-08-19T14:19:02;29.20;91.60
22319;DHT22;11327;52.334;9.506;2022-08-19T14:22:23;29.20;90.40
22319;DHT22;11327;52.334;9.506;2022-08-19T14:25:44;29.20;90.10
22319;DHT22;11327;52.334;9.506;2022-08-19T14:29:07;29.20;90.80
22319;DHT22;11327;52.334;9.506;2022-08-19T14:32:28;29.20;90.40
22319;DHT22;11327;52.334;9.506;2022-08-19T14:35:49;29.10;88.40
22319;DHT22;11327;52.334;9.506;2022-08-19T14:39:10;29.00;88.10
22319;DHT22;11327;52.334;9.506;2022-08-19T14:42:31;29.00;89.50
22319;DHT22;11327;52.334;9.506;2022-08-19T14:45:52;29.10;89.10
22319;DHT22;11327;52.334;9.506;2022-08-19T14:49:13;29.10;89.90
22319;DHT22;11327;52.334;9.506;2022-08-19T14:52:34;29.10;86.80
22319;DHT22;11327;52.334;9.506;2022-08-19T14:55:55;29.00;88.70
22319;DHT22;11327;52.334;9.506;2022-08-19T14:59:16;28.90;89.00
22319;DHT22;11327;52.334;9.506;2022-08-19T15:02:37;28.90;90.40
22319;DHT22;11327;52.334;9.506;2022-08-19T15:05:59;28.90;88.30
22319;DHT22;11327;52.334;9.506;2022-08-19T15:09:21;28.90;90.10
22319;DHT22;11327;52.334;9.506;2022-08-19T15:12:42;28.90;90.60
22319;DHT22;11327;52.334;9.506;2022-08-19T15:16:03;28.90;89.20
22319;DHT22;11327;52.334;9.506;2022-08-19T15:19:24;28.80;87.20
22319;DHT22;11327;52.334;9.506;2022-08-19T15:22:45;28.70;89.00
22319;DHT22;11327;52.334;9.506;2022-08-19T15:26:06;28.70;88.50
22319;DHT22;11327;52.334;9.506;2022-08-19T15:29:28;28.70;89.40
22319;DHT22;11327;52.334;9.506;2022-08-19T15:32:49;28.70;89.10
22319;DHT22;11327;52.334;9.506;2022-08-19T15:36:10;28.70;89.40
22319;DHT22;11327;52.334;9.506;2022-08-19T15:39:32;28.70;90.70
22319;DHT22;11327;52.334;9.506;2022-08-19T15:42:53;28.60;89.10
22319;DHT22;11327;52.334;9.506;2022-08-19T15:46:18;28.60;89.60
22319;DHT22;11327;52.334;9.506;2022-08-19T15:49:41;28.60;89.40
22319;DHT22;11327;52.334;9.506;2022-08-19T15:53:05;28.60;89.40
22319;DHT22;11327;52.334;9.506;2022-08-19T15:56:27;28.50;90.00
22319;DHT22;11327;52.334;9.506;2022-08-19T15:59:49;28.40;90.60
22319;DHT22;11327;52.334;9.506;2022-08-19T16:03:29;28.40;90.50
22319;DHT22;11327;52.334;9.506;2022-08-19T16:07:08;28.30;90.10
22319;DHT22;11327;52.334;9.506;2022-08-19T16:10:30;28.30;91.10
22319;DHT22;11327;52.334;9.506;2022-08-19T16:13:52;28.40;90.90
22319;DHT22;11327;52.334;9.506;2022-08-19T16:17:14;28.40;90.50
22319;DHT22;11327;52.334;9.506;2022-08-19T16:20:36;28.40;91.30
22319;DHT22;11327;52.334;9.506;2022-08-19T16:24:01;28.30;90.80
22319;DHT22;11327;52.334;9.506;2022-08-19T16:27:22;28.30;92.10
22319;DHT22;11327;52.334;9.506;2022-08-19T16:30:43;28.30;91.20
22319;DHT22;11327;52.334;9.506;2022-08-19T16:34:04;28.20;90.80
22319;DHT22;11327;52.334;9.506;2022-08-19T16:37:25;28.10;91.00
22319;DHT22;11327;52.334;9.506;2022-08-19T16:40:46;28.00;90.90
22319;DHT22;11327;52.334;9.506;2022-08-19T16:44:10;27.90;90.60
22319;DHT22;11327;52.334;9.506;2022-08-19T16:47:31;27.80;90.80
22319;DHT22;11327;52.334;9.506;2022-08-19T16:50:52;27.70;91.30
22319;DHT22;11327;52.334;9.506;2022-08-19T16:54:13;27.60;91.20
22319;DHT22;11327;52.334;9.506;2022-08-19T16:57:34;27.50;91.60
22319;DHT22;11327;52.334;9.506;2022-08-19T17:00:57;27.40;92.20
22319;DHT22;11327;52.334;9.506;2022-08-19T17:04:18;27.40;91.90
22319;DHT22;11327;52.334;9.506;2022-08-19T17:07:39;27.40;91.40
22319;DHT22;11327;52.334;9.506;2022-08-19T17:11:00;27.30;91.20
22319;DHT22;11327;52.334;9.506;2022-08-19T17:14:22;27.30;91.80
22319;DHT22;11327;52.334;9.506;2022-08-19T17:17:43;27.20;91.10
22319;DHT22;11327;52.334;9.506;2022-08-19T17:21:04;27.10;91.50
22319;DHT22;11327;52.334;9.506;2022-08-19T17:24:25;27.00;91.50
22319;DHT22;11327;52.334;9.506;2022-08-19T17:27:46;27.00;90.90
22319;DHT22;11327;52.334;9.506;2022-08-19T17:31:07;26.90;91.10
22319;DHT22;11327;52.334;9.506;2022-08-19T17:34:29;26.80;91.10
22319;DHT22;11327;52.334;9.506;2022-08-19T17:37:50;26.80;92.50
22319;DHT22;11327;52.334;9.506;2022-08-19T17:41:11;26.70;92.10
22319;DHT22;11327;52.334;9.506;2022-08-19T17:44:32;26.60;92.50
22319;DHT22;11327;52.334;9.506;2022-08-19T17:47:53;26.50;92.30
22319;DHT22;11327;52.334;9.506;2022-08-19T17:55:00;26.30;91.90
22319;DHT22;11327;52.334;9.506;2022-08-19T17:58:21;26.20;92.30
22319;DHT22;11327;52.334;9.506;2022-08-19T18:01:44;26.10;92.70
22319;DHT22;11327;52.334;9.506;2022-08-19T18:05:05;26.00;92.60
22319;DHT22;11327;52.334;9.506;2022-08-19T18:08:26;25.90;92.70
22319;DHT22;11327;52.334;9.506;2022-08-19T18:11:48;25.70;93.30
22319;DHT22;11327;52.334;9.506;2022-08-19T18:15:10;25.60;93.50
22319;DHT22;11327;52.334;9.506;2022-08-19T18:18:31;25.50;93.50
22319;DHT22;11327;52.334;9.506;2022-08-19T18:21:52;25.40;93.90
22319;DHT22;11327;52.334;9.506;2022-08-19T18:25:22;25.30;94.40
22319;DHT22;11327;52.334;9.506;2022-08-19T18:28:45;25.20;94.60
22319;DHT22;11327;52.334;9.506;2022-08-19T18:32:06;25.10;94.80
22319;DHT22;11327;52.334;9.506;2022-08-19T18:35:33;25.00;95.50
22319;DHT22;11327;52.334;9.506;2022-08-19T18:38:56;24.90;95.70
22319;DHT22;11327;52.334;9.506;2022-08-19T18:42:35;24.80;96.10
22319;DHT22;11327;52.334;9.506;2022-08-19T18:46:16;24.70;96.90
22319;DHT22;11327;52.334;9.506;2022-08-19T18:49:56;24.60;98.00
22319;DHT22;11327;52.334;9.506;2022-08-19T18:53:18;24.50;99.10
22319;DHT22;11327;52.334;9.506;2022-08-19T18:56:39;24.40;99.60
22319;DHT22;11327;52.334;9.506;2022-08-19T19:00:03;24.30;99.90
22319;DHT22;11327;52.334;9.506;2022-08-19T19:03:25;24.20;99.90
22319;DHT22;11327;52.334;9.506;2022-08-19T19:06:46;24.00;99.90
22319;DHT22;11327;52.334;9.506;2022-08-19T19:10:07;23.90;99.90
22319;DHT22;11327;52.334;9.506;2022-08-19T19:13:29;23.90;99.90
22319;DHT22;11327;52.334;9.506;2022-08-19T19:16:50;23.80;99.90
22319;DHT22;11327;52.334;9.506;2022-08-19T19:20:11;23.70;99.90
22319;DHT22;11327;52.334;9.506;2022-08-19T19:23:32;23.60;99.90
22319;DHT22;11327;52.334;9.506;2022-08-19T19:26:54;23.50;99.90
22319;DHT22;11327;52.334;9.506;2022-08-19T19:30:15;23.40;99.90
22319;DHT22;11327;52.334;9.506;2022-08-19T19:33:36;23.30;99.90
22319;DHT22;11327;52.334;9.506;2022-08-19T19:36:57;23.20;99.90
22319;DHT22;11327;52.334;9.506;2022-08-19T19:40:18;23.10;99.90
22319;DHT22;11327;52.334;9.506;2022-08-19T19:43:41;23.10;99.90
22319;DHT22;11327;52.334;9.506;2022-08-19T19:47:02;23.00;99.90
22319;DHT22;11327;52.334;9.506;2022-08-19T19:50:23;23.00;99.90
22319;DHT22;11327;52.334;9.506;2022-08-19T19:53:44;22.90;99.90
22319;DHT22;11327;52.334;9.506;2022-08-19T19:57:05;22.80;99.90
22319;DHT22;11327;52.334;9.506;2022-08-19T20:00:26;22.80;99.90
22319;DHT22;11327;52.334;9.506;2022-08-19T20:03:47;22.80;99.90
22319;DHT22;11327;52.334;9.506;2022-08-19T20:07:09;22.70;99.90
22319;DHT22;11327;52.334;9.506;2022-08-19T20:10:30;22.60;99.90
22319;DHT22;11327;52.334;9.506;2022-08-19T20:13:52;22.60;99.90
22319;DHT22;11327;52.334;9.506;2022-08-19T20:17:12;22.50;99.90
22319;DHT22;11327;52.334;9.506;2022-08-19T20:20:34;22.40;99.90
22319;DHT22;11327;52.334;9.506;2022-08-19T20:23:55;22.30;99.90
22319;DHT22;11327;52.334;9.506;2022-08-19T20:27:16;22.20;99.90
22319;DHT22;11327;52.334;9.506;2022-08-19T20:30:39;22.10;99.90
22319;DHT22;11327;52.334;9.506;2022-08-19T20:34:02;22.00;99.90
22319;DHT22;11327;52.334;9.506;2022-08-19T20:37:24;21.90;99.90
22319;DHT22;11327;52.334;9.506;2022-08-19T20:40:45;21.80;99.90
22319;DHT22;11327;52.334;9.506;2022-08-19T20:44:06;21.70;99.90
22319;DHT22;11327;52.334;9.506;2022-08-19T20:47:27;21.70;99.90
22319;DHT22;11327;52.334;9.506;2022-08-19T20:50:50;21.60;99.90
22319;DHT22;11327;52.334;9.506;2022-08-19T20:54:11;21.60;99.90
22319;DHT22;11327;52.334;9.506;2022-08-19T20:57:32;21.50;99.90
22319;DHT22;11327;52.334;9.506;2022-08-19T21:00:56;21.50;99.90
22319;DHT22;11327;52.334;9.506;2022-08-19T21:04:20;21.40;99.90
22319;DHT22;11327;52.334;9.506;2022-08-19T21:07:41;21.40;99.90
22319;DHT22;11327;52.334;9.506;2022-08-19T21:11:03;21.30;99.90
22319;DHT22;11327;52.334;9.506;2022-08-19T21:14:24;21.30;99.90
22319;DHT22;11327;52.334;9.506;2022-08-19T21:17:45;21.20;99.90
22319;DHT22;11327;52.334;9.506;2022-08-19T21:21:08;21.10;99.90
22319;DHT22;11327;52.334;9.506;2022-08-19T21:24:28;21.10;99.90